Friday, June 22, 2018, 3:33 AM EDT
Back to Local

KPYM, Plymouth Municipal Airport

Location: Carver, MA, United States Lat: 41.9
Local Time: 3:33 AM EDT ( 7:33 GMT) Lon: -70.733
Time Zone: US/Eastern Elev: 147 ft

Show me the last for .
Show Decoded

2018-06-22 03:16 METAR KPYM 220716Z AUTO 03007KT 10SM SCT004 16/15 A2993 RMK AO2 T01610150 =
2018-06-22 02:52 METAR KPYM 220652Z AUTO 03006KT 9SM OVC004 16/16 A2993 RMK AO2 SLP134 T01610156
                 =
2018-06-22 02:33 METAR KPYM 220633Z AUTO 03006KT 10SM BKN004 16/15 A2992 RMK AO2 T01560150 =
2018-06-22 02:25 METAR KPYM 220625Z AUTO 01004KT 10SM SCT004 15/14 A2992 RMK AO2 T01500144 =
2018-06-22 01:52 METAR KPYM 220552Z AUTO 03003KT 10SM CLR 13/12 A2991 RMK AO2 SLP129 T01330122
                 10200 20133 52009 =
2018-06-22 00:52 METAR KPYM 220452Z AUTO 00000KT 10SM CLR 14/13 A2991 RMK AO2 SLP126 T01390133
                 402670139 =
2018-06-21 23:52 METAR KPYM 220352Z AUTO 00000KT 10SM CLR 15/14 A2989 RMK AO2 SLP122 T01500139 =
2018-06-21 22:52 METAR KPYM 220252Z AUTO 00000KT 10SM CLR 16/14 A2988 RMK AO2 SLP119 T01610144
                 51021 =
2018-06-21 21:52 METAR KPYM 220152Z AUTO 00000KT 10SM SCT080 17/14 A2986 RMK AO2 SLP112 T01720144
                 =
2018-06-21 20:52 METAR KPYM 220052Z AUTO 00000KT 10SM OVC090 19/15 A2984 RMK AO2 SLP106 T01890150
                 =
2018-06-21 19:52 METAR KPYM 212352Z AUTO 00000KT 10SM FEW110 20/14 A2982 RMK AO2 SLP098 T02000144
                 10256 20200 51013 =
2018-06-21 18:52 METAR KPYM 212252Z AUTO 05004KT 10SM CLR 22/14 A2981 RMK AO2 SLP095 T02170144 =
2018-06-21 17:52 METAR KPYM 212152Z AUTO 04009KT 10SM CLR 22/13 A2980 RMK AO2 SLP091 T02170133 =
2018-06-21 16:52 METAR KPYM 212052Z AUTO 03008KT 10SM CLR 23/13 A2979 RMK AO2 SLP086 T02280133
                 53007 =
2018-06-21 15:52 METAR KPYM 211952Z AUTO 05008KT 10SM CLR 24/13 A2977 RMK AO2 SLP080 T02390133 =
2018-06-21 14:52 METAR KPYM 211852Z AUTO 06010KT 10SM CLR 24/13 A2976 RMK AO2 SLP078 T02440128 =
2018-06-21 13:52 METAR KPYM 211752Z AUTO 03011KT 10SM CLR 26/14 A2976 RMK AO2 SLP079 T02610139
                 10267 20211 56007 =
2018-06-21 12:52 METAR KPYM 211652Z AUTO 09006KT 10SM BKN039 26/17 A2977 RMK AO2 SLP078 T02610167
                 =
2018-06-21 11:52 METAR KPYM 211552Z AUTO 00000KT 10SM FEW047 26/16 A2978 RMK AO2 SLP082 T02560156
                 =
2018-06-21 10:52 METAR KPYM 211452Z AUTO 16005KT 10SM CLR 24/15 A2979 RMK AO2 SLP086 T02440150
                 51004 =
2018-06-21 09:52 METAR KPYM 211352Z AUTO 22008KT 10SM CLR 23/16 A2978 RMK AO2 SLP085 T02330161 =
2018-06-21 08:52 METAR KPYM 211252Z AUTO 22007KT 10SM CLR 22/17 A2979 RMK AO2 SLP086 T02220172 =
2018-06-21 07:52 METAR KPYM 211152Z AUTO 22007KT 10SM CLR 21/18 A2977 RMK AO2 SLP082 T02110178
                 10211 20167 51008 =
2018-06-21 06:52 METAR KPYM 211052Z AUTO 21004KT 10SM CLR 19/18 A2977 RMK AO2 SLP080 T01890178 =
2018-06-21 05:52 METAR KPYM 210952Z AUTO 21004KT 10SM CLR 18/17 A2976 RMK AO2 SLP077 T01830172 =
2018-06-21 04:52 METAR KPYM 210852Z AUTO 00000KT 10SM CLR 18/17 A2975 RMK AO2 SLP074 T01780167
                 55005 =
2018-06-21 03:52 METAR KPYM 210752Z AUTO 00000KT 10SM CLR 17/16 A2975 RMK AO2 SLP072 T01670161 =

Support USWX by starting your Amazon purchase here.